AUA269 LOWW-LDZA
Flight info
| Callsign | AUA269 |
|---|---|
| Flight time | 0h 35m |
| Altitude | 23000 |
| Route | STEIN3C/29 STEIN DCT NOHAT DCT NEKIN |
| Aircraft | A320/M-SDE3FGHIRWY/LB1 |
Departure
| Time | 2026-04-26 18:25 |
|---|---|
| Airport | Vienna International Airport (LOWW) |
Arrival
| Time | 2026-04-26 19:00 |
|---|---|
| Airport | Zagreb Franjo Tuđman International Airport (LDZA) |
| Time | Latitude | Longitude | Altitude | Speed | Heading |
|---|---|---|---|---|---|
| 2026-04-26 18:01 | 48.11386 | 16.57247 | 610 ft | 0 kts | 206° |
| 2026-04-26 18:02 | 48.11385 | 16.57247 | 610 ft | 0 kts | 206° |
| 2026-04-26 18:20 | 48.11384 | 16.57246 | 610 ft | 3 kts | 206° |
| 2026-04-26 18:21 | 48.11261 | 16.57281 | 609 ft | 6 kts | 187° |
| 2026-04-26 18:21 | 48.11207 | 16.57306 | 618 ft | 10 kts | 142° |
| 2026-04-26 18:21 | 48.11165 | 16.57408 | 625 ft | 14 kts | 117° |
| 2026-04-26 18:21 | 48.11121 | 16.57541 | 621 ft | 17 kts | 116° |
| 2026-04-26 18:22 | 48.11031 | 16.57636 | 610 ft | 17 kts | 196° |
| 2026-04-26 18:22 | 48.11023 | 16.57631 | 610 ft | 0 kts | 202° |
| 2026-04-26 18:23 | 48.11016 | 16.57626 | 610 ft | 8 kts | 204° |
| 2026-04-26 18:23 | 48.10939 | 16.57473 | 615 ft | 7 kts | 279° |
| 2026-04-26 18:23 | 48.10945 | 16.57442 | 614 ft | 1 kts | 292° |
| 2026-04-26 18:23 | 48.10947 | 16.57438 | 617 ft | 0 kts | 295° |
| 2026-04-26 18:24 | 48.10970 | 16.57363 | 625 ft | 38 kts | 295° |
| 2026-04-26 18:24 | 48.11218 | 16.56606 | 616 ft | 120 kts | 296° |
| 2026-04-26 18:24 | 48.11689 | 16.55213 | 700 ft | 172 kts | 299° |
| 2026-04-26 18:25 | 48.12226 | 16.53544 | 1467 ft | 184 kts | 299° |
| 2026-04-26 18:25 | 48.12618 | 16.51692 | 2326 ft | 198 kts | 274° |
| 2026-04-26 18:25 | 48.12109 | 16.49645 | 2897 ft | 229 kts | 230° |
| 2026-04-26 18:25 | 48.10757 | 16.48189 | 3493 ft | 256 kts | 209° |
| 2026-04-26 18:26 | 48.09067 | 16.47062 | 4040 ft | 274 kts | 198° |
| 2026-04-26 18:26 | 48.07145 | 16.46944 | 4738 ft | 285 kts | 170° |
| 2026-04-26 18:26 | 48.05219 | 16.47665 | 4959 ft | 286 kts | 167° |
| 2026-04-26 18:26 | 48.03265 | 16.48212 | 5009 ft | 285 kts | 172° |
| 2026-04-26 18:27 | 48.01297 | 16.48588 | 5042 ft | 287 kts | 175° |
| 2026-04-26 18:27 | 47.99301 | 16.48898 | 5846 ft | 288 kts | 179° |
| 2026-04-26 18:27 | 47.97325 | 16.48761 | 6755 ft | 284 kts | 195° |
| 2026-04-26 18:27 | 47.95438 | 16.47939 | 7582 ft | 280 kts | 209° |
| 2026-04-26 18:28 | 47.93699 | 16.46620 | 8398 ft | 281 kts | 213° |
| 2026-04-26 18:28 | 47.91954 | 16.45249 | 9198 ft | 286 kts | 213° |
| 2026-04-26 18:28 | 47.90165 | 16.43898 | 10001 ft | 292 kts | 207° |
| 2026-04-26 18:28 | 47.88172 | 16.43070 | 10701 ft | 304 kts | 192° |
| 2026-04-26 18:29 | 47.85981 | 16.43031 | 11025 ft | 331 kts | 175° |
| 2026-04-26 18:29 | 47.83654 | 16.43858 | 11221 ft | 356 kts | 167° |
| 2026-04-26 18:29 | 47.81191 | 16.44859 | 11361 ft | 379 kts | 167° |
| 2026-04-26 18:29 | 47.78594 | 16.45907 | 11745 ft | 391 kts | 167° |
| 2026-04-26 18:30 | 47.75952 | 16.46962 | 12358 ft | 397 kts | 167° |
| 2026-04-26 18:30 | 47.73268 | 16.48027 | 13011 ft | 401 kts | 167° |
| 2026-04-26 18:30 | 47.70556 | 16.49093 | 13660 ft | 405 kts | 167° |
| 2026-04-26 18:30 | 47.67819 | 16.50164 | 14258 ft | 409 kts | 167° |
| 2026-04-26 18:31 | 47.65056 | 16.51242 | 14836 ft | 412 kts | 167° |
| 2026-04-26 18:31 | 47.62308 | 16.52317 | 15406 ft | 415 kts | 167° |
| 2026-04-26 18:31 | 47.59513 | 16.53415 | 15975 ft | 417 kts | 167° |
| 2026-04-26 18:31 | 47.56657 | 16.54537 | 16533 ft | 420 kts | 167° |
| 2026-04-26 18:32 | 47.53858 | 16.55635 | 17060 ft | 423 kts | 167° |
| 2026-04-26 18:32 | 47.51002 | 16.56755 | 17608 ft | 426 kts | 167° |
| 2026-04-26 18:32 | 47.48088 | 16.57895 | 18153 ft | 429 kts | 167° |
| 2026-04-26 18:32 | 47.45195 | 16.59024 | 18662 ft | 431 kts | 167° |
| 2026-04-26 18:33 | 47.42257 | 16.59891 | 19134 ft | 430 kts | 175° |
| 2026-04-26 18:33 | 47.39315 | 16.60125 | 19659 ft | 429 kts | 180° |
| 2026-04-26 18:33 | 47.36328 | 16.60247 | 20135 ft | 431 kts | 180° |
| 2026-04-26 18:33 | 47.33326 | 16.60371 | 20606 ft | 432 kts | 180° |
| 2026-04-26 18:34 | 47.30305 | 16.60500 | 21062 ft | 434 kts | 180° |
| 2026-04-26 18:34 | 47.27283 | 16.60633 | 21510 ft | 436 kts | 181° |
| 2026-04-26 18:34 | 47.24227 | 16.60767 | 21951 ft | 438 kts | 181° |
| 2026-04-26 18:34 | 47.21178 | 16.60902 | 22356 ft | 440 kts | 181° |
| 2026-04-26 18:35 | 47.18112 | 16.61038 | 22808 ft | 441 kts | 181° |
| 2026-04-26 18:35 | 47.15032 | 16.61170 | 23160 ft | 443 kts | 181° |
| 2026-04-26 18:35 | 47.11940 | 16.61306 | 23248 ft | 449 kts | 181° |
| 2026-04-26 18:35 | 47.08771 | 16.61445 | 23242 ft | 460 kts | 181° |
| 2026-04-26 18:36 | 47.05559 | 16.61588 | 23240 ft | 465 kts | 181° |
| 2026-04-26 18:36 | 47.02314 | 16.61728 | 23247 ft | 466 kts | 181° |
| 2026-04-26 18:36 | 46.99071 | 16.61871 | 23228 ft | 467 kts | 181° |
| 2026-04-26 18:36 | 46.95813 | 16.62016 | 23236 ft | 468 kts | 181° |
| 2026-04-26 18:37 | 46.92561 | 16.62209 | 23212 ft | 469 kts | 179° |
| 2026-04-26 18:37 | 46.89292 | 16.62571 | 22744 ft | 472 kts | 177° |
| 2026-04-26 18:37 | 46.86027 | 16.63081 | 22186 ft | 471 kts | 175° |
| 2026-04-26 18:37 | 46.82781 | 16.63676 | 21637 ft | 468 kts | 175° |
| 2026-04-26 18:38 | 46.79562 | 16.64286 | 21103 ft | 465 kts | 175° |
| 2026-04-26 18:38 | 46.76367 | 16.64864 | 20566 ft | 461 kts | 175° |
| 2026-04-26 18:38 | 46.73183 | 16.65400 | 20044 ft | 458 kts | 175° |
| 2026-04-26 18:38 | 46.70023 | 16.65901 | 19536 ft | 455 kts | 175° |
| 2026-04-26 18:39 | 46.66878 | 16.66388 | 19032 ft | 452 kts | 175° |
| 2026-04-26 18:39 | 46.63755 | 16.66873 | 18541 ft | 450 kts | 175° |
| 2026-04-26 18:39 | 46.60655 | 16.67347 | 17980 ft | 447 kts | 175° |
| 2026-04-26 18:39 | 46.57605 | 16.67807 | 17432 ft | 445 kts | 175° |
| 2026-04-26 18:40 | 46.54553 | 16.68264 | 16877 ft | 441 kts | 175° |
| 2026-04-26 18:40 | 46.51502 | 16.68718 | 16341 ft | 438 kts | 175° |
| 2026-04-26 18:40 | 46.48479 | 16.69163 | 15816 ft | 435 kts | 176° |
| 2026-04-26 18:40 | 46.45465 | 16.69190 | 15362 ft | 431 kts | 186° |
| 2026-04-26 18:41 | 46.42516 | 16.68503 | 15198 ft | 429 kts | 195° |
| 2026-04-26 18:41 | 46.39700 | 16.67147 | 15229 ft | 428 kts | 205° |
| 2026-04-26 18:41 | 46.37064 | 16.65168 | 15225 ft | 426 kts | 214° |
| 2026-04-26 18:41 | 46.34693 | 16.62623 | 15224 ft | 423 kts | 223° |
| 2026-04-26 18:42 | 46.32483 | 16.59797 | 15226 ft | 423 kts | 223° |
| 2026-04-26 18:42 | 46.31022 | 16.57930 | 15225 ft | 423 kts | 223° |
| 2026-04-26 18:42 | 46.28815 | 16.55113 | 15226 ft | 423 kts | 223° |
| 2026-04-26 18:42 | 46.26610 | 16.52303 | 15216 ft | 422 kts | 223° |
| 2026-04-26 18:43 | 46.24421 | 16.49516 | 14718 ft | 417 kts | 223° |
| 2026-04-26 18:43 | 46.22254 | 16.46760 | 14062 ft | 415 kts | 223° |
| 2026-04-26 18:43 | 46.20094 | 16.44015 | 13369 ft | 411 kts | 223° |
| 2026-04-26 18:43 | 46.17962 | 16.41311 | 12755 ft | 405 kts | 223° |
| 2026-04-26 18:44 | 46.15856 | 16.38641 | 12153 ft | 399 kts | 223° |
| 2026-04-26 18:44 | 46.13779 | 16.36010 | 11555 ft | 394 kts | 224° |
| 2026-04-26 18:44 | 46.11726 | 16.33413 | 11259 ft | 392 kts | 224° |
| 2026-04-26 18:44 | 46.09680 | 16.30825 | 11201 ft | 391 kts | 224° |
| 2026-04-26 18:45 | 46.07640 | 16.28250 | 10826 ft | 386 kts | 224° |
| 2026-04-26 18:45 | 46.05634 | 16.25728 | 10412 ft | 376 kts | 224° |
| 2026-04-26 18:45 | 46.03718 | 16.23327 | 10145 ft | 354 kts | 224° |
| 2026-04-26 18:45 | 46.01902 | 16.21045 | 9431 ft | 339 kts | 225° |
| 2026-04-26 18:46 | 46.00278 | 16.18670 | 8728 ft | 327 kts | 229° |
| 2026-04-26 18:46 | 45.98770 | 16.16349 | 8049 ft | 317 kts | 229° |
| 2026-04-26 18:46 | 45.97277 | 16.14065 | 7385 ft | 309 kts | 228° |
| 2026-04-26 18:46 | 45.95841 | 16.11869 | 7080 ft | 290 kts | 228° |
| 2026-04-26 18:47 | 45.94504 | 16.09830 | 7004 ft | 272 kts | 228° |
| 2026-04-26 18:47 | 45.93210 | 16.07859 | 7011 ft | 270 kts | 229° |
| 2026-04-26 18:47 | 45.91920 | 16.05890 | 7012 ft | 271 kts | 228° |
| 2026-04-26 18:47 | 45.90623 | 16.03909 | 7013 ft | 272 kts | 228° |
| 2026-04-26 18:48 | 45.89327 | 16.01933 | 7003 ft | 272 kts | 229° |
| 2026-04-26 18:48 | 45.88043 | 15.99975 | 6702 ft | 267 kts | 229° |
| 2026-04-26 18:48 | 45.86770 | 15.98035 | 6266 ft | 267 kts | 228° |
| 2026-04-26 18:48 | 45.85503 | 15.96111 | 6018 ft | 264 kts | 227° |
| 2026-04-26 18:49 | 45.84234 | 15.94185 | 6006 ft | 267 kts | 227° |
| 2026-04-26 18:49 | 45.82958 | 15.92246 | 6002 ft | 267 kts | 226° |
| 2026-04-26 18:49 | 45.81682 | 15.90307 | 6003 ft | 267 kts | 226° |
| 2026-04-26 18:49 | 45.80407 | 15.88373 | 6004 ft | 266 kts | 226° |
| 2026-04-26 18:50 | 45.79139 | 15.86455 | 6004 ft | 265 kts | 225° |
| 2026-04-26 18:50 | 45.77873 | 15.84544 | 6004 ft | 263 kts | 225° |
| 2026-04-26 18:50 | 45.76614 | 15.82643 | 6005 ft | 264 kts | 225° |
| 2026-04-26 18:50 | 45.75365 | 15.80756 | 6005 ft | 265 kts | 226° |
| 2026-04-26 18:51 | 45.74083 | 15.78814 | 6005 ft | 267 kts | 226° |
| 2026-04-26 18:51 | 45.72825 | 15.76912 | 5956 ft | 265 kts | 226° |
| 2026-04-26 18:51 | 45.71562 | 15.75002 | 5584 ft | 263 kts | 225° |
| 2026-04-26 18:51 | 45.70301 | 15.73097 | 5169 ft | 263 kts | 224° |
| 2026-04-26 18:52 | 45.69047 | 15.71201 | 4771 ft | 261 kts | 223° |
| 2026-04-26 18:52 | 45.67657 | 15.69581 | 4495 ft | 258 kts | 201° |
| 2026-04-26 18:52 | 45.65933 | 15.69118 | 4497 ft | 253 kts | 172° |
| 2026-04-26 18:52 | 45.64287 | 15.69949 | 4495 ft | 255 kts | 144° |
| 2026-04-26 18:53 | 45.62947 | 15.71574 | 4489 ft | 252 kts | 138° |
| 2026-04-26 18:53 | 45.61592 | 15.73207 | 4453 ft | 256 kts | 138° |
| 2026-04-26 18:53 | 45.60276 | 15.74895 | 4358 ft | 251 kts | 136° |
| 2026-04-26 18:53 | 45.59040 | 15.76653 | 4319 ft | 252 kts | 129° |
| 2026-04-26 18:54 | 45.58209 | 15.78829 | 4180 ft | 249 kts | 105° |
| 2026-04-26 18:54 | 45.58070 | 15.81236 | 4134 ft | 241 kts | 81° |
| 2026-04-26 18:54 | 45.58714 | 15.83368 | 3879 ft | 237 kts | 53° |
| 2026-04-26 18:54 | 45.59896 | 15.85031 | 3506 ft | 234 kts | 43° |
| 2026-04-26 18:55 | 45.61066 | 15.86494 | 3223 ft | 215 kts | 45° |
| 2026-04-26 18:55 | 45.62086 | 15.87943 | 2960 ft | 198 kts | 52° |
| 2026-04-26 18:55 | 45.62949 | 15.89424 | 2705 ft | 189 kts | 52° |
| 2026-04-26 18:55 | 45.63793 | 15.90854 | 2625 ft | 188 kts | 51° |
| 2026-04-26 18:56 | 45.64667 | 15.92230 | 2681 ft | 188 kts | 50° |
| 2026-04-26 18:56 | 45.65528 | 15.93531 | 2460 ft | 173 kts | 49° |
| 2026-04-26 18:56 | 45.66345 | 15.94766 | 2235 ft | 168 kts | 49° |
| 2026-04-26 18:56 | 45.67138 | 15.95977 | 2044 ft | 166 kts | 49° |
| 2026-04-26 18:57 | 45.67910 | 15.97140 | 1860 ft | 157 kts | 49° |
| 2026-04-26 18:57 | 45.68397 | 15.97880 | 1805 ft | 154 kts | 49° |
| 2026-04-26 18:57 | 45.69312 | 15.99332 | 1527 ft | 137 kts | 49° |
| 2026-04-26 18:57 | 45.69963 | 16.00307 | 1338 ft | 134 kts | 48° |
| 2026-04-26 18:58 | 45.70596 | 16.01277 | 1139 ft | 134 kts | 48° |
| 2026-04-26 18:58 | 45.71238 | 16.02245 | 957 ft | 134 kts | 49° |
| 2026-04-26 18:58 | 45.71890 | 16.03222 | 753 ft | 137 kts | 47° |
| 2026-04-26 18:58 | 45.72535 | 16.04203 | 585 ft | 134 kts | 48° |
| 2026-04-26 18:59 | 45.73176 | 16.05179 | 390 ft | 133 kts | 46° |
| 2026-04-26 18:59 | 45.73741 | 16.06039 | 364 ft | 92 kts | 46° |
| 2026-04-26 18:59 | 45.74103 | 16.06586 | 358 ft | 65 kts | 46° |
| 2026-04-26 18:59 | 45.74373 | 16.06998 | 361 ft | 51 kts | 47° |
| 2026-04-26 19:00 | 45.74595 | 16.07343 | 359 ft | 43 kts | 47° |
| 2026-04-26 19:00 | 45.74666 | 16.07517 | 354 ft | 11 kts | 113° |
| 2026-04-26 19:00 | 45.74614 | 16.07599 | 354 ft | 0 kts | 137° |